Time,TemperatureF,DewpointF,PressureIn,WindDirection,WindDirectionDegrees,WindSpeedMPH,WindSpeedGustMPH,Humidity,HourlyPrecipIn,Conditions,Clouds,dailyrainin,SoftwareType,DateUTC
2013-02-26 00:00:00,26.4,22.8,30.22,ESE,105,0.0,0.0,86,0.00,CLR,,0.00,WeatherDisplay:10.37,2013-02-26 05:00:00,
2013-02-26 00:15:00,26.1,22.4,30.22,ESE,105,0.0,0.0,86,0.00,CLR,,0.00,WeatherDisplay:10.37,2013-02-26 05:15:00,
2013-02-26 00:30:00,25.9,22.3,30.22,ESE,105,0.0,0.0,86,0.00,CLR,,0.00,WeatherDisplay:10.37,2013-02-26 05:30:00,
2013-02-26 00:45:00,25.7,22.4,30.25,ESE,105,0.0,0.0,87,0.00,CLR,,0.00,WeatherDisplay:10.37,2013-02-26 05:45:00,
2013-02-26 01:00:00,25.9,22.5,30.25,ESE,105,0.0,0.0,87,0.00,CLR,,0.00,WeatherDisplay:10.37,2013-02-26 06:00:00,
2013-02-26 01:15:00,25.5,22.2,30.22,ESE,105,0.0,0.0,87,0.00,CLR,,0.00,WeatherDisplay:10.37,2013-02-26 06:15:00,
2013-02-26 01:30:00,25.3,22.0,30.22,ESE,105,0.0,0.0,87,0.00,CLR,,0.00,WeatherDisplay:10.37,2013-02-26 06:30:00,
2013-02-26 01:45:00,25.2,22.1,30.22,ESE,105,0.0,0.0,88,0.00,CLR,,0.00,WeatherDisplay:10.37,2013-02-26 06:45:00,
2013-02-26 02:00:00,25.0,21.9,30.25,ESE,105,0.0,0.0,88,0.00,CLR,,0.00,WeatherDisplay:10.37,2013-02-26 07:00:00,
2013-02-26 02:15:00,24.8,21.8,30.25,ESE,105,0.0,0.0,88,0.00,CLR,,0.00,WeatherDisplay:10.37,2013-02-26 07:15:00,
2013-02-26 02:30:00,25.0,21.9,30.25,ESE,105,0.0,0.0,88,0.00,CLR,,0.00,WeatherDisplay:10.37,2013-02-26 07:30:00,
2013-02-26 02:45:00,24.8,21.8,30.25,ESE,105,0.0,0.0,88,0.00,CLR,,0.00,WeatherDisplay:10.37,2013-02-26 07:45:00,
2013-02-26 03:00:00,24.8,21.8,30.25,ESE,105,0.0,0.0,88,0.00,CLR,,0.00,WeatherDisplay:10.37,2013-02-26 08:00:00,
2013-02-26 03:15:00,25.0,22.2,30.25,ESE,105,0.0,0.0,89,0.00,CLR,,0.00,WeatherDisplay:10.37,2013-02-26 08:15:00,
2013-02-26 03:30:00,24.8,22.0,30.22,ESE,105,0.0,0.0,89,0.00,CLR,,0.00,WeatherDisplay:10.37,2013-02-26 08:30:00,
2013-02-26 03:45:00,24.8,22.0,30.22,ESE,105,0.0,0.0,89,0.00,CLR,,0.00,WeatherDisplay:10.37,2013-02-26 08:45:00,
2013-02-26 04:00:00,25.0,22.5,30.22,ESE,105,0.0,0.0,90,0.00,CLR,,0.00,WeatherDisplay:10.37,2013-02-26 09:00:00,
2013-02-26 04:15:00,25.0,22.5,30.22,ESE,105,0.0,0.0,90,0.00,CLR,,0.00,WeatherDisplay:10.37,2013-02-26 09:15:00,
2013-02-26 04:30:00,25.2,22.6,30.22,ESE,105,0.0,0.0,90,0.00,CLR,,0.00,WeatherDisplay:10.37,2013-02-26 09:30:00,
2013-02-26 04:45:00,25.3,23.1,30.22,ESE,105,0.0,0.0,91,0.00,CLR,,0.00,WeatherDisplay:10.37,2013-02-26 09:45:00,
2013-02-26 05:00:00,25.5,23.3,30.22,ESE,105,0.0,0.0,91,0.00,CLR,,0.00,WeatherDisplay:10.37,2013-02-26 10:00:00,
2013-02-26 05:15:00,26.2,24.0,30.22,ESE,105,0.0,0.0,91,0.00,CLR,,0.00,WeatherDisplay:10.37,2013-02-26 10:15:00,
2013-02-26 05:30:00,27.3,25.6,30.19,NE,35,0.0,0.0,93,0.00,CLR,,0.00,WeatherDisplay:10.37,2013-02-26 10:30:00,
2013-02-26 05:45:00,27.3,25.6,30.19,NE,35,0.0,0.0,93,0.00,CLR,,0.00,WeatherDisplay:10.37,2013-02-26 10:45:00,
2013-02-26 06:00:00,27.3,25.6,30.19,NE,35,0.0,0.0,93,0.00,CLR,,0.00,WeatherDisplay:10.37,2013-02-26 11:00:00,
2013-02-26 06:15:00,27.3,25.6,30.22,NE,35,0.0,0.0,93,0.00,CLR,,0.00,WeatherDisplay:10.37,2013-02-26 11:15:00,
2013-02-26 06:30:00,28.4,26.9,30.19,NE,53,0.0,2.0,94,0.00,CLR,,0.00,WeatherDisplay:10.37,2013-02-26 11:30:00,
2013-02-26 06:45:00,28.9,27.7,30.22,NE,50,1.0,2.0,95,0.00,CLR,,0.00,WeatherDisplay:10.37,2013-02-26 11:45:00,
2013-02-26 07:00:00,29.3,28.0,30.22,NE,40,0.0,2.0,95,0.00,CLR,,0.00,WeatherDisplay:10.37,2013-02-26 12:00:00,
2013-02-26 07:15:00,30.2,28.9,30.22,NE,40,0.0,0.0,95,0.00,CLR,,0.00,WeatherDisplay:10.37,2013-02-26 12:15:00,
2013-02-26 07:30:00,31.3,30.3,30.22,ENE,65,0.0,2.0,96,0.00,CLR,,0.00,WeatherDisplay:10.37,2013-02-26 12:30:00,
2013-02-26 07:45:00,32.5,31.5,30.22,ENE,60,1.0,2.0,96,0.00,CLR,,0.00,WeatherDisplay:10.37,2013-02-26 12:45:00,
2013-02-26 08:00:00,33.8,32.5,30.22,NE,54,2.0,5.0,95,0.00,CLR,,0.00,WeatherDisplay:10.37,2013-02-26 13:00:00,
2013-02-26 08:15:00,35.1,33.0,30.22,ENE,57,3.0,6.0,92,0.00,CLR,,0.00,WeatherDisplay:10.37,2013-02-26 13:15:00,
2013-02-26 08:30:00,36.1,32.1,30.22,NE,50,5.0,6.0,85,0.00,CLR,,0.00,WeatherDisplay:10.37,2013-02-26 13:30:00,
2013-02-26 08:45:00,37.4,31.2,30.22,NE,54,5.0,7.0,78,0.00,CLR,,0.00,WeatherDisplay:10.37,2013-02-26 13:45:00,
2013-02-26 09:00:00,38.1,31.2,30.22,ENE,65,5.0,9.0,76,0.00,CLR,,0.00,WeatherDisplay:10.37,2013-02-26 14:00:00,
2013-02-26 09:15:00,40.3,30.9,30.22,NE,56,8.0,11.0,69,0.00,CLR,,0.00,WeatherDisplay:10.37,2013-02-26 14:15:00,
2013-02-26 09:30:00,40.6,30.5,30.22,ENE,66,7.0,9.0,67,0.00,CLR,,0.00,WeatherDisplay:10.37,2013-02-26 14:30:00,
2013-02-26 10:00:00,42.4,31.1,30.22,NE,55,9.0,12.0,64,0.00,CLR,,0.00,WeatherDisplay:10.37,2013-02-26 15:00:00,
2013-02-26 10:15:00,43.7,31.9,30.22,ENE,57,8.0,10.0,63,0.00,CLR,,0.00,WeatherDisplay:10.37,2013-02-26 15:15:00,
2013-02-26 10:30:00,44.1,31.9,30.22,NE,48,9.0,12.0,62,0.00,CLR,,0.00,WeatherDisplay:10.37,2013-02-26 15:30:00,
2013-02-26 10:45:00,44.8,32.1,30.22,ENE,66,9.0,13.0,61,0.00,BKN,,0.00,WeatherDisplay:10.37,2013-02-26 15:45:00,
2013-02-26 11:00:00,45.1,32.1,30.22,NE,56,10.0,14.0,60,0.00,BKN,,0.00,WeatherDisplay:10.37,2013-02-26 16:00:00,
2013-02-26 11:15:00,46.2,33.1,30.19,NE,53,12.0,15.0,60,0.00,OVC,,0.00,WeatherDisplay:10.37,2013-02-26 16:15:00,
2013-02-26 11:30:00,47.5,32.6,30.19,ENE,66,10.0,14.0,56,0.00,OVC,,0.00,WeatherDisplay:10.37,2013-02-26 16:30:00,
2013-02-26 11:45:00,47.8,32.4,30.19,ENE,65,12.0,15.0,55,0.00,BKN,,0.00,WeatherDisplay:10.37,2013-02-26 16:45:00,
2013-02-26 12:00:00,47.8,32.4,30.19,ENE,71,12.0,15.0,55,0.00,FEW,,0.00,WeatherDisplay:10.37,2013-02-26 17:00:00,
2013-02-26 12:15:00,47.5,32.1,30.19,ENE,60,12.0,16.0,55,0.00,SCT,,0.00,WeatherDisplay:10.37,2013-02-26 17:15:00,
2013-02-26 12:30:00,46.2,31.8,30.16,NE,54,10.0,14.0,57,0.00,SCT,,0.00,WeatherDisplay:10.37,2013-02-26 17:30:00,
2013-02-26 12:45:00,46.0,32.1,30.16,ENE,63,10.0,16.0,58,0.00,OVC,,0.00,WeatherDisplay:10.37,2013-02-26 17:45:00,
2013-02-26 13:00:00,46.0,32.5,30.13,NE,50,12.0,14.0,59,0.00,OVC,,0.00,WeatherDisplay:10.37,2013-02-26 18:00:00,
2013-02-26 13:15:00,45.3,32.2,30.13,NE,50,12.0,17.0,60,0.00,CLR,,0.00,WeatherDisplay:10.37,2013-02-26 18:15:00,
2013-02-26 13:30:00,45.1,32.5,30.13,ENE,57,12.0,14.0,61,0.00,CLR,,0.00,WeatherDisplay:10.37,2013-02-26 18:30:00,
2013-02-26 13:45:00,45.1,32.9,30.13,ENE,59,12.0,13.0,62,0.00,SCT,,0.00,WeatherDisplay:10.37,2013-02-26 18:45:00,
2013-02-26 14:00:00,44.6,32.8,30.10,NE,55,12.0,15.0,63,0.00,SCT,,0.00,WeatherDisplay:10.37,2013-02-26 19:00:00,
2013-02-26 14:15:00,44.2,33.2,30.10,NE,56,13.0,15.0,65,0.00,OVC,,0.00,WeatherDisplay:10.37,2013-02-26 19:15:00,
2013-02-26 14:30:00,44.2,33.6,30.10,ENE,58,15.0,17.0,66,0.00,OVC,,0.00,WeatherDisplay:10.37,2013-02-26 19:30:00,
2013-02-26 14:45:00,44.4,33.8,30.10,NE,49,15.0,17.0,66,0.00,OVC,,0.00,WeatherDisplay:10.37,2013-02-26 19:45:00,
2013-02-26 15:00:00,44.2,33.6,30.07,ENE,62,16.0,20.0,66,0.00,OVC,,0.00,WeatherDisplay:10.37,2013-02-26 20:00:00,
2013-02-26 15:15:00,43.9,33.3,30.07,ENE,64,16.0,18.0,66,0.00,OVC,,0.00,WeatherDisplay:10.37,2013-02-26 20:15:00,
2013-02-26 15:30:00,43.7,33.5,30.07,NE,54,15.0,20.0,67,0.00,OVC,,0.00,WeatherDisplay:10.37,2013-02-26 20:30:00,
2013-02-26 15:45:00,43.7,33.5,30.07,ENE,60,12.0,13.0,67,0.00,OVC,,0.00,WeatherDisplay:10.37,2013-02-26 20:45:00,
2013-02-26 16:00:00,43.7,33.8,30.04,ENE,61,9.0,11.0,68,0.00,CLR,,0.00,WeatherDisplay:10.37,2013-02-26 21:00:00,
2013-02-26 16:15:00,43.7,34.2,30.04,ENE,71,10.0,13.0,69,0.00,CLR,,0.00,WeatherDisplay:10.37,2013-02-26 21:15:00,
2013-02-26 16:30:00,43.7,34.2,30.04,ENE,61,13.0,19.0,69,0.00,CLR,,0.00,WeatherDisplay:10.37,2013-02-26 21:30:00,
2013-02-26 16:45:00,43.7,34.6,30.01,ENE,61,12.0,14.0,70,0.00,CLR,,0.00,WeatherDisplay:10.37,2013-02-26 21:45:00,
2013-02-26 17:15:00,42.8,35.1,30.01,ENE,64,12.0,17.0,74,0.11,OVC,,0.11,WeatherDisplay:10.37,2013-02-26 22:15:00,
2013-02-26 17:30:00,42.3,36.2,29.99,ENE,66,13.0,17.0,79,0.00,OVC,,0.11,WeatherDisplay:10.37,2013-02-26 22:30:00,
2013-02-26 17:45:00,42.1,37.0,29.99,ENE,66,13.0,16.0,82,0.01,RA,,0.13,WeatherDisplay:10.37,2013-02-26 22:45:00,
2013-02-26 18:00:00,42.3,38.1,29.99,ENE,69,12.0,14.0,85,0.01,RA,,0.14,WeatherDisplay:10.37,2013-02-26 23:00:00,
2013-02-26 18:15:00,42.6,39.0,29.95,NE,53,15.0,24.0,87,0.01,RA,,0.16,WeatherDisplay:10.37,2013-02-26 23:15:00,
2013-02-26 18:30:00,42.3,39.0,29.93,ENE,66,18.0,24.0,88,0.03,RA,,0.18,WeatherDisplay:10.37,2013-02-26 23:30:00,
2013-02-26 18:45:00,42.1,39.4,29.93,NE,53,15.0,16.0,90,0.00,OVC,,0.18,WeatherDisplay:10.37,2013-02-26 23:45:00,
2013-02-26 19:00:00,41.9,39.5,29.93,ENE,62,15.0,16.0,91,0.00,OVC,,0.18,WeatherDisplay:10.37,2013-02-27 00:00:00,
2013-02-26 19:15:00,41.9,39.7,29.90,ENE,61,16.0,21.0,92,0.00,OVC,,0.18,WeatherDisplay:10.37,2013-02-27 00:15:00,
2013-02-26 19:30:00,42.3,40.7,29.87,ENE,58,18.0,18.0,94,0.00,OVC,,0.18,WeatherDisplay:10.37,2013-02-27 00:30:00,
2013-02-26 19:45:00,42.4,41.1,29.87,NE,54,16.0,20.0,95,0.00,OVC,,0.18,WeatherDisplay:10.37,2013-02-27 00:45:00,
2013-02-26 20:00:00,42.6,41.6,29.87,ENE,67,16.0,22.0,96,0.01,RA,,0.20,WeatherDisplay:10.37,2013-02-27 01:00:00,
2013-02-26 20:15:00,43.2,42.1,29.87,ENE,65,14.0,16.0,96,0.07,RA,,0.27,WeatherDisplay:10.37,2013-02-27 01:15:00,
2013-02-26 20:30:00,43.2,42.6,29.87,ENE,61,15.0,18.0,98,0.06,RA,,0.33,WeatherDisplay:10.37,2013-02-27 01:30:00,
2013-02-26 20:45:00,43.2,43.2,29.84,ENE,63,16.0,23.0,100,0.03,RA,,0.35,WeatherDisplay:10.37,2013-02-27 01:45:00,
2013-02-26 21:00:00,43.3,43.3,29.81,NE,53,16.0,20.0,100,0.04,RA,,0.40,WeatherDisplay:10.37,2013-02-27 02:00:00,
2013-02-26 21:15:00,43.7,43.7,29.81,NE,55,17.0,20.0,100,0.04,RA,,0.44,WeatherDisplay:10.37,2013-02-27 02:15:00,
2013-02-26 21:30:00,43.7,43.7,29.78,ENE,57,16.0,20.0,100,0.06,RA,,0.50,WeatherDisplay:10.37,2013-02-27 02:30:00,
2013-02-26 21:45:00,44.1,44.1,29.75,NE,55,17.0,21.0,100,0.11,RA,,0.61,WeatherDisplay:10.37,2013-02-27 02:45:00,
2013-02-26 22:00:00,44.4,44.4,29.75,ENE,58,18.0,22.0,100,0.01,RA,,0.62,WeatherDisplay:10.37,2013-02-27 03:00:00,
2013-02-26 22:15:00,45.0,45.0,29.72,NE,48,16.0,21.0,100,0.04,RA,,0.67,WeatherDisplay:10.37,2013-02-27 03:15:00,
2013-02-26 22:30:00,45.5,45.5,29.69,NE,51,18.0,20.0,100,0.09,RA,,0.75,WeatherDisplay:10.37,2013-02-27 03:30:00,
2013-02-26 22:45:00,45.3,45.3,29.69,ENE,58,16.0,20.0,100,0.06,RA,,0.81,WeatherDisplay:10.37,2013-02-27 03:45:00,
2013-02-26 23:00:00,45.7,45.7,29.69,ENE,61,15.0,20.0,100,0.06,RA,,0.87,WeatherDisplay:10.37,2013-02-27 04:00:00,
2013-02-26 23:15:00,45.7,45.7,29.69,ENE,60,13.0,15.0,100,0.09,RA,,0.95,WeatherDisplay:10.37,2013-02-27 04:15:00,
2013-02-26 23:30:00,46.0,46.0,29.69,ESE,102,12.0,14.0,100,0.11,RA,,1.06,WeatherDisplay:10.37,2013-02-27 04:30:00,
2013-02-26 23:45:00,46.8,46.8,29.66,ENE,75,10.0,14.0,100,0.07,RA,,1.13,WeatherDisplay:10.37,2013-02-27 04:45:00,